createdAt,value
2023-05-17T00:01:50.953Z,100.00
2023-05-17T00:04:18.591Z,100.00
2023-05-17T00:06:46.144Z,100.00
2023-05-17T00:09:13.765Z,100.00
2023-05-17T00:11:41.304Z,100.00
2023-05-17T00:14:08.871Z,100.00
2023-05-17T00:16:36.386Z,100.00
2023-05-17T00:19:03.993Z,100.00
2023-05-17T00:21:31.715Z,100.00
2023-05-17T00:23:59.157Z,100.00
2023-05-17T00:26:26.669Z,100.00
2023-05-17T00:28:54.328Z,100.00
2023-05-17T00:31:21.916Z,100.00
2023-05-17T00:33:49.396Z,100.00
2023-05-17T00:36:16.907Z,100.00
2023-05-17T00:38:44.401Z,100.00
2023-05-17T00:41:13.104Z,100.00
2023-05-17T00:43:40.991Z,100.00
2023-05-17T00:46:08.723Z,100.00
2023-05-17T00:48:36.619Z,100.00
2023-05-17T00:51:04.367Z,100.00
2023-05-17T00:53:32.227Z,100.00
2023-05-17T00:56:00.766Z,100.00
2023-05-17T00:58:28.525Z,100.00
2023-05-17T01:00:56.507Z,100.00
2023-05-17T01:03:24.165Z,100.00
2023-05-17T01:05:52.139Z,100.00
2023-05-17T01:08:19.673Z,100.00
2023-05-17T01:11:43.997Z,100.00
2023-05-17T01:14:34.464Z,100.00
2023-05-17T01:17:17.939Z,100.00
2023-05-17T01:20:19.161Z,100.00
2023-05-17T01:23:14.181Z,100.00
2023-05-17T01:25:48.953Z,100.00
2023-05-17T01:28:18.488Z,100.00
2023-05-17T01:30:50.442Z,100.00
2023-05-17T01:33:21.026Z,100.00
2023-05-17T01:35:48.609Z,100.00
2023-05-17T01:38:16.117Z,100.00
2023-05-17T01:41:00.610Z,100.00
2023-05-17T01:44:08.065Z,100.00
2023-05-17T01:46:41.687Z,100.00
2023-05-17T01:49:21.808Z,100.00
2023-05-17T01:51:59.205Z,100.00
2023-05-17T01:54:36.799Z,100.00
2023-05-17T01:57:07.780Z,100.00
2023-05-17T01:59:39.000Z,100.00
2023-05-17T02:02:08.927Z,100.00
2023-05-17T02:04:37.429Z,100.00
2023-05-17T02:07:05.131Z,100.00
2023-05-17T02:09:32.675Z,100.00
2023-05-17T02:12:00.213Z,100.00
2023-05-17T02:14:27.758Z,100.00
2023-05-17T02:16:55.285Z,100.00
2023-05-17T02:19:22.793Z,100.00
2023-05-17T02:21:50.385Z,100.00
2023-05-17T02:24:17.861Z,100.00
2023-05-17T02:26:46.500Z,100.00
2023-05-17T02:29:14.198Z,100.00
2023-05-17T02:31:41.748Z,100.00
2023-05-17T02:34:09.318Z,100.00
2023-05-17T02:36:36.881Z,100.00
2023-05-17T02:39:05.639Z,100.00
2023-05-17T02:41:33.189Z,100.00
2023-05-17T02:44:01.195Z,100.00
2023-05-17T02:46:28.743Z,100.00
2023-05-17T02:48:56.305Z,100.00
2023-05-17T02:51:23.886Z,100.00
2023-05-17T02:53:51.692Z,100.00
2023-05-17T02:56:19.698Z,100.00
2023-05-17T02:58:47.163Z,100.00
2023-05-17T03:01:14.872Z,100.00
2023-05-17T03:03:43.635Z,100.00
2023-05-17T03:06:11.704Z,100.00
2023-05-17T03:08:40.298Z,100.00
2023-05-17T03:11:08.549Z,100.00
2023-05-17T03:13:36.227Z,100.00
2023-05-17T03:16:03.882Z,100.00
2023-05-17T03:18:31.883Z,100.00
2023-05-17T03:20:59.681Z,100.00
2023-05-17T03:23:27.403Z,100.00
2023-05-17T03:26:00.671Z,100.00
2023-05-17T03:28:31.417Z,100.00
2023-05-17T03:30:59.929Z,100.00
2023-05-17T03:33:30.957Z,100.00
2023-05-17T03:35:59.331Z,100.00
2023-05-17T03:38:26.758Z,100.00
2023-05-17T03:40:54.451Z,100.00
2023-05-17T03:43:22.023Z,100.00
2023-05-17T03:45:50.148Z,100.00
2023-05-17T03:48:19.099Z,100.00
2023-05-17T03:50:46.718Z,100.00
2023-05-17T03:53:14.480Z,100.00
2023-05-17T03:55:42.427Z,100.00
2023-05-17T03:58:10.376Z,100.00
2023-05-17T04:00:38.013Z,100.00
2023-05-17T04:03:13.065Z,100.00
2023-05-17T04:05:45.657Z,100.00
2023-05-17T04:08:14.071Z,100.00
2023-05-17T04:10:44.847Z,100.00
2023-05-17T04:13:12.379Z,100.00
2023-05-17T04:15:39.981Z,100.00
2023-05-17T04:18:08.817Z,100.00
2023-05-17T04:20:36.363Z,100.00
2023-05-17T04:23:04.140Z,100.00
2023-05-17T04:25:34.276Z,100.00
2023-05-17T04:28:04.128Z,100.00
2023-05-17T04:30:32.600Z,100.00
2023-05-17T04:33:01.196Z,100.00
2023-05-17T04:35:29.170Z,100.00
2023-05-17T04:37:57.195Z,100.00
2023-05-17T04:40:24.802Z,100.00
2023-05-17T04:42:52.654Z,100.00
2023-05-17T04:45:29.920Z,100.00
2023-05-17T04:47:57.700Z,100.00
2023-05-17T04:50:28.654Z,100.00
2023-05-17T04:52:56.420Z,100.00
2023-05-17T04:55:24.258Z,100.00
2023-05-17T04:57:52.467Z,100.00
2023-05-17T05:00:22.976Z,100.00
2023-05-17T05:02:58.452Z,100.00
2023-05-17T05:05:26.736Z,100.00
2023-05-17T05:07:54.591Z,100.00
2023-05-17T05:10:26.126Z,100.00
2023-05-17T05:12:55.039Z,100.00
2023-05-17T05:15:23.978Z,100.00
2023-05-17T05:17:56.867Z,100.00
2023-05-17T05:20:28.196Z,100.00
2023-05-17T05:22:58.590Z,100.00
2023-05-17T05:25:28.039Z,100.00
2023-05-17T05:27:55.925Z,100.00
2023-05-17T05:30:23.521Z,100.00
2023-05-17T05:32:55.451Z,100.00
2023-05-17T05:35:30.373Z,100.00
2023-05-17T05:37:59.333Z,100.00
2023-05-17T05:40:30.290Z,100.00
2023-05-17T05:42:58.070Z,100.00
2023-05-17T05:45:25.624Z,100.00
2023-05-17T05:47:55.521Z,100.00
2023-05-17T05:50:23.067Z,100.00
2023-05-17T05:53:18.954Z,100.00
2023-05-17T05:55:56.997Z,100.00
2023-05-17T05:58:24.704Z,100.00
2023-05-17T06:00:57.314Z,98.25
2023-05-17T06:03:25.560Z,100.00
2023-05-17T06:05:53.167Z,95.94
2023-05-17T06:08:20.991Z,93.76
2023-05-17T06:10:48.535Z,94.22
2023-05-17T06:13:16.006Z,95.69
2023-05-17T06:15:43.509Z,91.53
2023-05-17T06:18:11.178Z,91.78
2023-05-17T06:20:38.731Z,94.40
2023-05-17T06:23:06.749Z,93.24
2023-05-17T06:25:34.268Z,88.64
2023-05-17T06:28:03.208Z,89.20
2023-05-17T06:30:31.567Z,91.14
2023-05-17T06:32:59.468Z,89.36
2023-05-17T06:35:27.290Z,90.75
2023-05-17T06:37:55.018Z,90.12
2023-05-17T06:40:22.813Z,88.37
2023-05-17T06:42:50.405Z,87.60
2023-05-17T06:45:17.971Z,84.72
2023-05-17T06:47:45.667Z,86.68
2023-05-17T06:50:13.289Z,86.24
2023-05-17T06:52:40.852Z,88.26
2023-05-17T06:55:09.991Z,89.15
2023-05-17T06:57:38.127Z,89.94
2023-05-17T07:00:11.173Z,90.28
2023-05-17T07:02:39.059Z,90.28
2023-05-17T07:05:07.790Z,89.82
2023-05-17T07:07:35.728Z,93.36
2023-05-17T07:10:04.081Z,90.91
2023-05-17T07:12:31.746Z,90.57
2023-05-17T07:14:59.373Z,90.76
2023-05-17T07:17:26.953Z,89.83
2023-05-17T07:19:54.732Z,89.07
2023-05-17T07:22:22.729Z,87.37
2023-05-17T07:24:51.068Z,90.01
2023-05-17T07:27:18.624Z,90.16
2023-05-17T07:29:46.178Z,91.51
2023-05-17T07:32:13.966Z,91.93
2023-05-17T07:34:41.667Z,92.06
2023-05-17T07:37:09.232Z,89.46
2023-05-17T07:39:36.776Z,90.24
2023-05-17T07:42:05.657Z,90.69
2023-05-17T07:44:33.581Z,90.12
2023-05-17T07:47:01.155Z,89.13
2023-05-17T07:49:28.948Z,90.87
2023-05-17T07:51:58.717Z,90.43
2023-05-17T07:54:27.676Z,89.80
2023-05-17T07:56:55.733Z,92.00
2023-05-17T07:59:24.139Z,88.92
2023-05-17T08:01:52.440Z,89.11
2023-05-17T08:04:20.087Z,86.86
2023-05-17T08:06:48.502Z,89.05
2023-05-17T08:09:16.820Z,91.23
2023-05-17T08:11:46.184Z,92.53
2023-05-17T08:14:17.813Z,89.30
2023-05-17T08:16:48.289Z,88.57
2023-05-17T08:19:17.126Z,90.75
2023-05-17T08:21:46.318Z,91.11
2023-05-17T08:24:14.322Z,92.59
2023-05-17T08:26:42.063Z,95.29
2023-05-17T08:29:09.628Z,98.32
2023-05-17T08:31:37.225Z,98.09
2023-05-17T08:34:04.829Z,96.95
2023-05-17T08:36:32.315Z,100.00
2023-05-17T08:39:00.048Z,100.00
2023-05-17T08:41:36.141Z,100.00
2023-05-17T08:44:13.068Z,100.00
2023-05-17T08:46:44.100Z,100.00
2023-05-17T08:49:13.027Z,100.00
2023-05-17T08:51:42.312Z,100.00
2023-05-17T08:54:09.888Z,100.00
2023-05-17T08:56:40.429Z,100.00
2023-05-17T08:59:13.600Z,100.00
2023-05-17T09:01:48.977Z,100.00
2023-05-17T09:04:17.872Z,100.00
2023-05-17T09:06:45.766Z,100.00
2023-05-17T09:09:13.919Z,100.00
2023-05-17T09:11:41.748Z,100.00
2023-05-17T09:14:09.617Z,100.00
2023-05-17T09:16:38.463Z,100.00
2023-05-17T09:19:09.147Z,100.00
2023-05-17T09:21:38.144Z,100.00
2023-05-17T09:24:08.403Z,100.00
2023-05-17T09:26:49.740Z,100.00
2023-05-17T09:29:19.972Z,100.00
2023-05-17T09:31:47.540Z,100.00
2023-05-17T09:34:19.711Z,100.00
2023-05-17T09:36:47.644Z,100.00
2023-05-17T09:39:15.945Z,100.00
2023-05-17T09:41:51.233Z,100.00
2023-05-17T09:44:18.872Z,100.00
2023-05-17T09:46:48.544Z,100.00
2023-05-17T09:49:19.127Z,100.00
2023-05-17T09:51:50.035Z,100.00
2023-05-17T09:54:20.611Z,100.00
2023-05-17T09:56:55.716Z,100.00
2023-05-17T09:59:29.130Z,100.00
2023-05-17T10:01:58.499Z,100.00
2023-05-17T10:04:29.519Z,100.00
2023-05-17T10:06:57.628Z,100.00
2023-05-17T10:09:34.485Z,100.00
2023-05-17T10:12:06.079Z,100.00
2023-05-17T10:14:36.906Z,100.00
2023-05-17T10:17:07.428Z,100.00
2023-05-17T10:19:35.098Z,100.00
2023-05-17T10:22:18.916Z,100.00
2023-05-17T10:24:51.743Z,100.00
2023-05-17T10:27:19.795Z,100.00
2023-05-17T10:29:50.401Z,100.00
2023-05-17T10:32:23.326Z,100.00
2023-05-17T10:34:58.110Z,100.00
2023-05-17T10:37:40.325Z,100.00
2023-05-17T10:40:17.624Z,100.00
2023-05-17T10:42:51.980Z,100.00
2023-05-17T10:45:25.610Z,100.00
2023-05-17T10:47:55.058Z,100.00
2023-05-17T10:50:28.203Z,100.00
2023-05-17T10:53:00.776Z,100.00
2023-05-17T10:55:43.978Z,100.00
2023-05-17T10:58:18.330Z,100.00
2023-05-17T11:00:55.164Z,100.00
2023-05-17T11:03:31.932Z,100.00
2023-05-17T11:06:23.344Z,100.00
2023-05-17T11:09:16.555Z,100.00
2023-05-17T11:12:08.282Z,100.00
2023-05-17T11:14:53.518Z,100.00
2023-05-17T11:17:26.436Z,100.00
2023-05-17T11:20:12.386Z,100.00
2023-05-17T11:23:00.721Z,100.00
2023-05-17T11:25:36.122Z,100.00
2023-05-17T11:28:22.401Z,100.00
2023-05-17T11:30:54.200Z,100.00
2023-05-17T11:33:45.148Z,100.00
2023-05-17T11:36:21.472Z,100.00
2023-05-17T11:38:55.279Z,100.00
2023-05-17T11:41:30.122Z,100.00
2023-05-17T11:43:58.058Z,100.00
2023-05-17T11:46:26.075Z,100.00
2023-05-17T11:48:54.830Z,100.00
2023-05-17T11:51:24.606Z,100.00
2023-05-17T11:53:56.017Z,100.00
2023-05-17T11:56:41.982Z,100.00
2023-05-17T11:59:10.983Z,100.00
2023-05-17T12:01:47.282Z,100.00
2023-05-17T12:04:17.336Z,100.00
2023-05-17T12:06:45.701Z,100.00
2023-05-17T12:09:17.814Z,100.00
2023-05-17T12:11:46.338Z,100.00
2023-05-17T12:14:20.621Z,100.00
2023-05-17T12:16:56.272Z,100.00
2023-05-17T12:19:30.050Z,100.00
2023-05-17T12:22:14.732Z,100.00
2023-05-17T12:24:43.851Z,100.00
2023-05-17T12:27:11.935Z,100.00
2023-05-17T12:29:40.247Z,100.00
2023-05-17T12:32:10.218Z,100.00
2023-05-17T12:34:42.555Z,100.00
2023-05-17T12:37:15.118Z,100.00
2023-05-17T12:40:04.392Z,100.00
2023-05-17T12:42:33.480Z,100.00
2023-05-17T12:45:01.420Z,100.00
2023-05-17T12:47:32.770Z,100.00
2023-05-17T12:50:03.556Z,100.00
2023-05-17T12:52:37.436Z,100.00
2023-05-17T12:55:14.163Z,100.00
2023-05-17T12:57:51.047Z,100.00
2023-05-17T13:00:20.135Z,100.00
2023-05-17T13:02:48.553Z,100.00
2023-05-17T13:05:21.824Z,100.00
2023-05-17T13:07:55.770Z,100.00
2023-05-17T13:10:28.200Z,100.00
2023-05-17T13:12:58.229Z,100.00
2023-05-17T13:15:33.453Z,100.00
2023-05-17T13:18:01.535Z,100.00
2023-05-17T13:20:29.418Z,100.00
2023-05-17T13:22:57.152Z,100.00
2023-05-17T13:25:25.652Z,100.00
2023-05-17T13:27:55.569Z,100.00
2023-05-17T13:30:26.148Z,100.00
2023-05-17T13:32:54.839Z,100.00
2023-05-17T13:35:22.928Z,100.00
2023-05-17T13:37:50.595Z,100.00
2023-05-17T13:40:19.515Z,100.00
2023-05-17T13:42:47.428Z,100.00
2023-05-17T13:45:14.964Z,100.00
2023-05-17T13:47:42.654Z,100.00
2023-05-17T13:50:12.118Z,100.00
2023-05-17T13:52:40.965Z,100.00
2023-05-17T13:55:09.220Z,100.00
2023-05-17T13:57:36.672Z,100.00
2023-05-17T14:00:05.781Z,100.00
2023-05-17T14:02:33.978Z,100.00
2023-05-17T14:05:02.263Z,100.00
2023-05-17T14:07:30.155Z,100.00
2023-05-17T14:09:57.729Z,100.00
2023-05-17T14:12:25.267Z,100.00
2023-05-17T14:14:52.930Z,100.00
2023-05-17T14:17:20.453Z,100.00
2023-05-17T14:19:48.189Z,100.00
2023-05-17T14:22:15.921Z,100.00
2023-05-17T14:24:43.465Z,100.00
2023-05-17T14:27:11.674Z,100.00
2023-05-17T14:29:39.243Z,100.00
2023-05-17T14:32:07.305Z,100.00
2023-05-17T14:34:34.881Z,100.00
2023-05-17T14:37:02.378Z,100.00
2023-05-17T14:39:29.956Z,100.00
2023-05-17T14:41:57.425Z,100.00
2023-05-17T14:44:27.625Z,100.00
2023-05-17T14:46:56.369Z,100.00
2023-05-17T14:49:23.913Z,100.00
2023-05-17T14:51:52.433Z,100.00
2023-05-17T14:54:20.632Z,100.00
2023-05-17T14:56:49.205Z,100.00
2023-05-17T14:59:18.612Z,100.00
2023-05-17T15:01:49.916Z,100.00
2023-05-17T15:04:18.500Z,100.00
2023-05-17T15:06:48.799Z,100.00
2023-05-17T15:09:18.996Z,100.00
2023-05-17T15:11:47.217Z,100.00
2023-05-17T15:14:22.933Z,100.00
2023-05-17T15:16:53.103Z,100.00
2023-05-17T15:19:21.554Z,100.00
2023-05-17T15:21:49.694Z,100.00
2023-05-17T15:24:19.655Z,100.00
2023-05-17T15:26:48.342Z,100.00
2023-05-17T15:29:16.397Z,100.00
2023-05-17T15:31:46.515Z,100.00
2023-05-17T15:34:17.776Z,100.00
2023-05-17T15:36:56.205Z,100.00
2023-05-17T15:39:23.994Z,100.00
2023-05-17T15:41:52.588Z,100.00
2023-05-17T15:44:20.305Z,100.00
2023-05-17T15:46:47.898Z,100.00
2023-05-17T15:49:17.776Z,100.00
2023-05-17T15:51:47.740Z,100.00
2023-05-17T15:54:17.108Z,100.00
2023-05-17T15:57:08.548Z,100.00
2023-05-17T15:59:38.147Z,100.00
2023-05-17T16:02:11.007Z,100.00
2023-05-17T16:04:38.913Z,100.00
2023-05-17T16:07:07.123Z,100.00
2023-05-17T16:09:35.550Z,100.00
2023-05-17T16:12:06.006Z,100.00
2023-05-17T16:14:33.849Z,100.00
2023-05-17T16:17:05.860Z,100.00
2023-05-17T16:19:34.423Z,100.00
2023-05-17T16:22:04.468Z,100.00
2023-05-17T16:24:33.874Z,100.00
2023-05-17T16:27:02.477Z,100.00
2023-05-17T16:29:33.254Z,100.00
2023-05-17T16:32:01.089Z,100.00
2023-05-17T16:34:29.367Z,100.00
2023-05-17T16:36:58.421Z,100.00
2023-05-17T16:39:27.234Z,100.00
2023-05-17T16:41:57.397Z,100.00
2023-05-17T16:44:24.942Z,100.00
2023-05-17T16:46:52.460Z,100.00
2023-05-17T16:49:21.907Z,100.00
2023-05-17T16:52:16.081Z,100.00
2023-05-17T16:54:44.280Z,100.00
2023-05-17T16:57:16.079Z,100.00
2023-05-17T16:59:45.372Z,100.00
2023-05-17T17:02:14.481Z,100.00
2023-05-17T17:04:42.884Z,100.00
2023-05-17T17:07:10.498Z,100.00
2023-05-17T17:09:38.389Z,100.00
2023-05-17T17:12:20.123Z,100.00
2023-05-17T17:14:51.165Z,100.00
2023-05-17T17:17:18.658Z,100.00
2023-05-17T17:19:46.406Z,100.00
2023-05-17T17:22:14.796Z,100.00
2023-05-17T17:24:45.467Z,100.00
2023-05-17T17:27:13.088Z,100.00
2023-05-17T17:29:40.655Z,100.00
2023-05-17T17:32:11.973Z,100.00
2023-05-17T17:34:39.668Z,100.00
2023-05-17T17:37:10.099Z,100.00
2023-05-17T17:39:37.637Z,100.00
2023-05-17T17:42:06.010Z,100.00
2023-05-17T17:44:34.904Z,100.00
2023-05-17T17:47:02.524Z,100.00
2023-05-17T17:49:30.311Z,100.00
2023-05-17T17:51:58.296Z,100.00
2023-05-17T17:54:26.070Z,100.00
2023-05-17T17:56:53.647Z,100.00
2023-05-17T17:59:23.183Z,100.00
2023-05-17T18:01:53.508Z,100.00
2023-05-17T18:04:22.387Z,100.00
2023-05-17T18:06:51.245Z,100.00
2023-05-17T18:09:20.577Z,100.00
2023-05-17T18:11:51.488Z,100.00
2023-05-17T18:14:19.950Z,100.00
2023-05-17T18:16:47.818Z,100.00
2023-05-17T18:19:15.699Z,100.00
2023-05-17T18:21:43.897Z,100.00
2023-05-17T18:24:12.523Z,100.00
2023-05-17T18:26:41.068Z,100.00
2023-05-17T18:29:09.528Z,100.00
2023-05-17T18:31:38.485Z,100.00
2023-05-17T18:34:06.170Z,100.00
2023-05-17T18:36:34.773Z,100.00
2023-05-17T18:39:05.755Z,100.00
2023-05-17T18:41:34.739Z,100.00
2023-05-17T18:44:02.979Z,100.00
2023-05-17T18:46:30.790Z,100.00
2023-05-17T18:48:58.627Z,100.00
2023-05-17T18:51:26.296Z,100.00
2023-05-17T18:53:53.957Z,100.00
2023-05-17T18:56:25.903Z,100.00
2023-05-17T18:58:53.838Z,100.00
2023-05-17T19:01:22.158Z,100.00
2023-05-17T19:03:55.048Z,100.00
2023-05-17T19:06:30.132Z,100.00
2023-05-17T19:09:00.170Z,100.00
2023-05-17T19:11:31.320Z,100.00
2023-05-17T19:14:19.298Z,100.00
2023-05-17T19:16:51.902Z,100.00
2023-05-17T19:19:22.311Z,100.00
2023-05-17T19:21:55.468Z,100.00
2023-05-17T19:24:23.369Z,100.00
2023-05-17T19:26:51.019Z,100.00
2023-05-17T19:29:21.304Z,100.00
2023-05-17T19:31:50.265Z,100.00
2023-05-17T19:34:17.873Z,100.00
2023-05-17T19:36:47.207Z,100.00
2023-05-17T19:39:21.050Z,100.00
2023-05-17T19:41:49.014Z,100.00
2023-05-17T19:44:19.200Z,100.00
2023-05-17T19:46:50.972Z,100.00
2023-05-17T19:49:18.973Z,100.00
2023-05-17T19:51:50.685Z,100.00
2023-05-17T19:54:21.902Z,100.00
2023-05-17T19:56:50.436Z,100.00
2023-05-17T19:59:26.883Z,100.00
2023-05-17T20:01:57.166Z,100.00
2023-05-17T20:04:27.227Z,100.00
2023-05-17T20:06:56.660Z,100.00
2023-05-17T20:09:28.034Z,100.00
2023-05-17T20:11:58.791Z,100.00
2023-05-17T20:14:29.187Z,100.00
2023-05-17T20:17:00.171Z,100.00
2023-05-17T20:19:29.210Z,100.00
2023-05-17T20:21:59.830Z,100.00
2023-05-17T20:24:32.447Z,100.00
2023-05-17T20:27:01.882Z,100.00
2023-05-17T20:29:33.256Z,100.00
2023-05-17T20:32:02.010Z,100.00
2023-05-17T20:34:39.241Z,100.00
2023-05-17T20:37:09.500Z,100.00
2023-05-17T20:39:37.616Z,100.00
2023-05-17T20:42:06.678Z,100.00
2023-05-17T20:44:36.263Z,100.00
2023-05-17T20:47:08.112Z,100.00
2023-05-17T20:49:35.879Z,100.00
2023-05-17T20:52:04.629Z,100.00
2023-05-17T20:54:35.029Z,100.00
2023-05-17T20:57:04.212Z,100.00
2023-05-17T20:59:33.682Z,100.00
2023-05-17T21:02:04.402Z,100.00
2023-05-17T21:04:32.030Z,100.00
2023-05-17T21:06:59.650Z,100.00
2023-05-17T21:09:27.735Z,100.00
2023-05-17T21:11:55.857Z,100.00
2023-05-17T21:14:23.464Z,100.00
2023-05-17T21:16:51.113Z,100.00
2023-05-17T21:19:18.721Z,100.00
2023-05-17T21:21:46.701Z,100.00
2023-05-17T21:24:15.576Z,100.00
2023-05-17T21:26:43.103Z,100.00
2023-05-17T21:29:10.657Z,100.00
2023-05-17T21:31:38.523Z,100.00
2023-05-17T21:34:07.480Z,100.00
2023-05-17T21:36:36.103Z,100.00
2023-05-17T21:39:04.248Z,100.00
2023-05-17T21:41:32.120Z,100.00
2023-05-17T21:44:00.042Z,100.00
2023-05-17T21:46:27.988Z,100.00
2023-05-17T21:48:55.726Z,100.00
2023-05-17T21:51:23.364Z,100.00
2023-05-17T21:53:51.015Z,100.00
2023-05-17T21:56:18.673Z,100.00
2023-05-17T21:58:46.328Z,100.00
2023-05-17T22:01:14.076Z,100.00
2023-05-17T22:03:41.691Z,100.00
2023-05-17T22:06:09.415Z,100.00
2023-05-17T22:08:36.904Z,100.00
2023-05-17T22:11:05.694Z,100.00
2023-05-17T22:13:33.302Z,100.00
2023-05-17T22:16:02.030Z,100.00
2023-05-17T22:18:31.964Z,100.00
2023-05-17T22:21:02.511Z,100.00
2023-05-17T22:23:30.132Z,100.00
2023-05-17T22:26:00.350Z,100.00
2023-05-17T22:28:28.842Z,100.00
2023-05-17T22:30:56.404Z,100.00
2023-05-17T22:33:23.958Z,100.00
2023-05-17T22:35:53.711Z,100.00
2023-05-17T22:38:23.384Z,100.00
2023-05-17T22:40:51.095Z,100.00
2023-05-17T22:43:21.506Z,100.00
2023-05-17T22:45:50.693Z,100.00
2023-05-17T22:48:20.022Z,100.00
2023-05-17T22:50:47.975Z,100.00
2023-05-17T22:53:17.592Z,100.00
2023-05-17T22:55:48.762Z,100.00
2023-05-17T22:58:16.609Z,100.00
2023-05-17T23:00:44.510Z,100.00
2023-05-17T23:03:12.826Z,100.00
2023-05-17T23:05:40.405Z,100.00
2023-05-17T23:08:08.092Z,100.00
2023-05-17T23:10:35.806Z,100.00
2023-05-17T23:13:04.223Z,100.00
2023-05-17T23:15:34.287Z,100.00
2023-05-17T23:18:01.954Z,100.00
2023-05-17T23:20:31.261Z,100.00
2023-05-17T23:22:59.672Z,100.00
2023-05-17T23:25:29.011Z,100.00
2023-05-17T23:27:59.464Z,100.00
2023-05-17T23:30:27.913Z,100.00
2023-05-17T23:32:55.503Z,100.00
2023-05-17T23:35:26.466Z,100.00
2023-05-17T23:37:54.021Z,100.00
2023-05-17T23:40:21.721Z,100.00
2023-05-17T23:42:49.304Z,100.00
2023-05-17T23:45:16.817Z,100.00
2023-05-17T23:47:44.470Z,100.00
2023-05-17T23:50:12.264Z,100.00
2023-05-17T23:52:40.003Z,100.00
2023-05-17T23:55:08.348Z,100.00
2023-05-17T23:57:36.668Z,100.00
